Time;durP1;ratioP1;P1;durP2;ratioP2;P2;SDS_P1;SDS_P2;PMS_P1;PMS_P2;Temp;Humidity;BMP_temperature;BMP_pressure;BME280_temperature;BME280_humidity;BME280_pressure;Samples;Min_cycle;Max_cycle;Signal;HPM_P1;HPM_P2
2022/07/11 00:02:05;;;;;;;3.25;1.60;;;15.00;99.90;;;;;;4347027;28;10000503;-74
2022/07/11 00:04:32;;;;;;;3.90;1.60;;;15.00;99.90;;;;;;5045698;28;20021;-73
2022/07/11 00:06:58;;;;;;;4.18;1.48;;;15.00;99.90;;;;;;5043448;28;20094;-73
2022/07/11 00:09:24;;;;;;;3.28;1.75;;;15.00;99.90;;;;;;5040204;28;20034;-74
2022/07/11 00:11:50;;;;;;;3.95;1.40;;;15.00;99.90;;;;;;5052092;28;20025;-74
2022/07/11 00:14:17;;;;;;;3.72;1.60;;;15.00;99.90;;;;;;5039387;28;20029;-74
2022/07/11 00:16:42;;;;;;;3.67;1.60;;;14.90;99.90;;;;;;5044353;28;20055;-74
2022/07/11 00:19:08;;;;;;;3.25;1.90;;;14.90;99.90;;;;;;5044714;28;20473;-74
2022/07/11 00:21:35;;;;;;;4.63;2.00;;;14.90;99.90;;;;;;5040192;28;20037;-73
2022/07/11 00:24:02;;;;;;;4.80;1.95;;;14.90;99.90;;;;;;5040392;28;20033;-74
2022/07/11 00:26:28;;;;;;;7.72;2.30;;;14.90;99.90;;;;;;5046239;28;20059;-74
2022/07/11 00:28:53;;;;;;;3.97;2.08;;;14.90;99.90;;;;;;5037310;28;20068;-74
2022/07/11 00:31:19;;;;;;;6.55;1.65;;;14.90;99.90;;;;;;5046157;28;20449;-74
2022/07/11 00:33:45;;;;;;;3.13;1.42;;;14.90;99.90;;;;;;5038071;28;20604;-73
2022/07/11 00:36:11;;;;;;;4.70;1.77;;;14.80;99.90;;;;;;5045443;28;20079;-74
2022/07/11 00:38:37;;;;;;;7.97;2.30;;;14.80;99.90;;;;;;5040818;28;20385;-74
2022/07/11 00:41:03;;;;;;;3.67;2.10;;;14.90;99.90;;;;;;5040148;28;20021;-74
2022/07/11 00:43:36;;;;;;;5.25;2.00;;;14.90;99.90;;;;;;5036907;28;20034;-74
2022/07/11 00:46:03;;;;;;;6.65;2.00;;;14.90;99.90;;;;;;5039092;28;20099;-73
2022/07/11 00:48:29;;;;;;;4.97;1.80;;;14.80;99.90;;;;;;5030003;28;20021;-73
2022/07/11 00:50:56;;;;;;;4.43;1.60;;;14.80;99.90;;;;;;5037182;28;20029;-73
2022/07/11 00:53:22;;;;;;;4.10;1.90;;;14.90;99.90;;;;;;5044959;28;20025;-73
2022/07/11 00:55:49;;;;;;;4.22;1.63;;;14.80;99.90;;;;;;5044731;28;20025;-73
2022/07/11 00:58:15;;;;;;;5.65;1.60;;;14.90;99.90;;;;;;5038208;28;20057;-73
2022/07/11 01:00:41;;;;;;;5.97;1.95;;;14.90;99.90;;;;;;5034549;28;20477;-73
2022/07/11 01:03:07;;;;;;;4.43;1.85;;;14.80;99.90;;;;;;5038029;28;20025;-74
2022/07/11 01:05:33;;;;;;;3.95;1.77;;;14.80;99.90;;;;;;5040228;28;20443;-74
2022/07/11 01:07:59;;;;;;;6.82;1.88;;;14.80;99.90;;;;;;5040610;28;20113;-74
2022/07/11 01:10:25;;;;;;;4.20;1.85;;;14.80;99.90;;;;;;5040802;28;20037;-73
2022/07/11 01:12:51;;;;;;;4.35;1.65;;;14.80;99.90;;;;;;5040218;28;20051;-73
2022/07/11 01:15:16;;;;;;;4.25;1.92;;;14.80;99.90;;;;;;5032696;28;20021;-74
2022/07/11 01:17:43;;;;;;;3.30;1.88;;;14.80;99.90;;;;;;5036235;28;20075;-73
2022/07/11 01:20:09;;;;;;;4.65;2.28;;;14.80;99.90;;;;;;5034199;28;20025;-73
2022/07/11 01:22:50;;;;;;;2.97;1.98;;;14.80;99.90;;;;;;5041067;28;20025;-74
2022/07/11 01:25:34;;;;;;;7.70;2.40;;;14.80;99.90;;;;;;5039117;28;20029;-73
2022/07/11 01:28:02;;;;;;;5.78;2.42;;;14.80;99.90;;;;;;5040673;28;20029;-74
2022/07/11 01:30:29;;;;;;;8.48;2.47;;;14.70;99.90;;;;;;5043518;28;20025;-74
2022/07/11 01:32:55;;;;;;;3.67;2.65;;;14.80;99.90;;;;;;5042981;28;20033;-73
2022/07/11 01:35:22;;;;;;;4.07;2.53;;;14.80;99.90;;;;;;5041852;28;20413;-74
2022/07/11 01:37:48;;;;;;;5.15;2.75;;;14.80;99.90;;;;;;5040528;28;20022;-73
2022/07/11 01:40:14;;;;;;;3.53;2.08;;;14.80;99.90;;;;;;5038810;28;20029;-74
2022/07/11 01:42:40;;;;;;;3.33;2.00;;;14.80;99.90;;;;;;5044253;28;20048;-74
2022/07/11 01:45:07;;;;;;;3.50;2.10;;;14.80;99.90;;;;;;5042550;28;20091;-74
2022/07/11 01:47:32;;;;;;;2.13;1.90;;;14.80;99.90;;;;;;5041844;28;20727;-74
2022/07/11 01:49:58;;;;;;;7.05;2.33;;;14.80;99.90;;;;;;5034385;28;20032;-73
2022/07/11 01:52:23;;;;;;;4.75;2.30;;;14.80;99.90;;;;;;5042126;28;20036;-73
2022/07/11 01:54:49;;;;;;;3.72;2.13;;;14.80;99.90;;;;;;5038965;28;20091;-74
2022/07/11 01:57:15;;;;;;;5.40;2.05;;;14.80;99.90;;;;;;5040468;28;20040;-73
2022/07/11 01:59:42;;;;;;;5.28;2.20;;;14.70;99.90;;;;;;5033878;28;20032;-73
2022/07/11 02:02:07;;;;;;;2.58;1.90;;;14.70;99.90;;;;;;5041914;28;20032;-73
2022/07/11 02:04:33;;;;;;;6.65;2.10;;;14.80;99.90;;;;;;5040814;28;20029;-73
2022/07/11 02:06:59;;;;;;;6.10;2.55;;;14.80;99.90;;;;;;5035264;28;20550;-74
2022/07/11 02:09:25;;;;;;;4.53;2.00;;;14.80;99.90;;;;;;5037068;28;20032;-74
2022/07/11 02:11:50;;;;;;;3.78;1.80;;;14.80;99.90;;;;;;5040392;28;20040;-74
2022/07/11 02:14:16;;;;;;;5.25;1.70;;;14.80;99.90;;;;;;5041417;28;20044;-74
2022/07/11 02:16:42;;;;;;;5.32;1.73;;;14.80;99.90;;;;;;5038998;28;20041;-74
2022/07/11 02:19:08;;;;;;;5.28;2.05;;;14.80;99.90;;;;;;5033280;28;20550;-74
2022/07/11 02:21:34;;;;;;;3.40;1.75;;;14.80;99.90;;;;;;5045190;28;20552;-74
2022/07/11 02:23:59;;;;;;;4.15;1.63;;;14.80;99.90;;;;;;5038745;28;20501;-74
2022/07/11 02:26:25;;;;;;;3.63;1.42;;;14.70;99.90;;;;;;5040610;28;20065;-74
2022/07/11 02:28:51;;;;;;;3.50;1.45;;;14.70;99.90;;;;;;5037411;28;20025;-74
2022/07/11 02:31:17;;;;;;;2.35;1.30;;;14.60;99.90;;;;;;5036332;28;20493;-74
2022/07/11 02:33:42;;;;;;;1.63;1.30;;;14.60;99.90;;;;;;5045113;28;20435;-74
2022/07/11 02:36:09;;;;;;;3.03;1.30;;;14.60;99.90;;;;;;5040748;28;20048;-74
2022/07/11 02:38:35;;;;;;;5.20;1.80;;;14.60;99.90;;;;;;5032240;28;20040;-74
2022/07/11 02:41:00;;;;;;;1.70;1.40;;;14.60;99.90;;;;;;5036330;28;20170;-74
2022/07/11 02:43:27;;;;;;;2.63;1.30;;;14.60;99.90;;;;;;5033410;28;20113;-74
2022/07/11 02:45:54;;;;;;;2.08;1.50;;;14.70;99.90;;;;;;5042145;28;20033;-74
2022/07/11 02:48:20;;;;;;;4.05;1.30;;;14.70;99.90;;;;;;5041200;28;20385;-74
2022/07/11 02:50:45;;;;;;;1.40;1.30;;;14.70;99.90;;;;;;5035398;28;20029;-74
2022/07/11 02:53:11;;;;;;;1.75;1.13;;;14.70;99.90;;;;;;5042408;28;20109;-74
2022/07/11 02:55:37;;;;;;;1.35;1.10;;;14.70;99.90;;;;;;5033762;28;20036;-74
2022/07/11 02:58:02;;;;;;;2.20;1.33;;;14.60;99.90;;;;;;5042413;28;20056;-74
2022/07/11 03:00:28;;;;;;;1.92;1.25;;;14.60;99.90;;;;;;5037353;28;20735;-74
2022/07/11 03:02:53;;;;;;;2.95;1.67;;;14.60;99.90;;;;;;5036189;28;20079;-74
2022/07/11 03:05:19;;;;;;;3.90;1.45;;;14.70;99.90;;;;;;5042032;28;20089;-74
2022/07/11 03:07:45;;;;;;;1.55;1.33;;;14.70;99.90;;;;;;5036304;28;20021;-73
2022/07/11 03:10:11;;;;;;;1.52;1.17;;;14.80;99.90;;;;;;5033725;28;20493;-74
2022/07/11 03:12:37;;;;;;;2.50;1.35;;;14.70;99.90;;;;;;5044256;28;20013;-73
2022/07/11 03:15:03;;;;;;;3.33;1.52;;;14.80;99.90;;;;;;5040489;28;20036;-73
2022/07/11 03:17:29;;;;;;;1.75;1.02;;;14.70;99.90;;;;;;5042168;28;20029;-73
2022/07/11 03:19:55;;;;;;;3.47;1.35;;;14.80;99.90;;;;;;5037911;28;20178;-73
2022/07/11 03:22:22;;;;;;;1.60;1.20;;;14.80;99.90;;;;;;5041805;28;20506;-74
2022/07/11 03:24:50;;;;;;;2.70;1.60;;;14.90;99.90;;;;;;5038047;28;20072;-73
2022/07/11 03:27:16;;;;;;;3.55;1.30;;;14.90;99.90;;;;;;5048682;28;20041;-73
2022/07/11 03:29:42;;;;;;;2.58;1.48;;;14.90;99.90;;;;;;5041616;28;20028;-73
2022/07/11 03:32:09;;;;;;;3.67;1.90;;;15.00;99.90;;;;;;5042573;28;20499;-74
2022/07/11 03:34:34;;;;;;;3.13;1.35;;;15.00;99.90;;;;;;5039142;28;20481;-74
2022/07/11 03:37:00;;;;;;;1.88;1.50;;;15.00;99.90;;;;;;5036064;28;20187;-74
2022/07/11 03:39:26;;;;;;;4.70;1.98;;;15.00;99.90;;;;;;5042092;28;20074;-74
2022/07/11 03:41:52;;;;;;;1.75;1.60;;;15.00;99.90;;;;;;5040123;28;20521;-74
2022/07/11 03:44:19;;;;;;;2.88;1.70;;;15.00;99.90;;;;;;5043328;28;20099;-74
2022/07/11 03:46:45;;;;;;;2.10;1.45;;;15.00;99.90;;;;;;5045361;28;20052;-74
2022/07/11 03:49:11;;;;;;;4.72;1.70;;;15.00;99.90;;;;;;5034311;28;20025;-74
2022/07/11 03:51:36;;;;;;;2.95;1.20;;;15.00;99.90;;;;;;5043677;28;20033;-74
2022/07/11 03:54:03;;;;;;;2.92;1.58;;;15.00;99.90;;;;;;5040665;28;20102;-74
2022/07/11 03:56:28;;;;;;;4.22;1.50;;;15.00;99.90;;;;;;5045110;28;20042;-74
2022/07/11 03:58:54;;;;;;;3.75;1.30;;;15.00;99.90;;;;;;5040618;28;20036;-74
2022/07/11 04:01:20;;;;;;;1.90;1.40;;;15.00;99.90;;;;;;5040358;28;20021;-74
2022/07/11 04:03:46;;;;;;;2.47;1.40;;;15.00;99.90;;;;;;5040891;28;20074;-74
2022/07/11 04:06:12;;;;;;;1.48;1.30;;;15.00;99.90;;;;;;5039573;28;20028;-74
2022/07/11 04:08:39;;;;;;;2.28;1.30;;;14.90;99.90;;;;;;5051794;28;20035;-74
2022/07/11 04:11:05;;;;;;;1.83;1.30;;;14.90;99.90;;;;;;5036565;28;20033;-74
2022/07/11 04:13:31;;;;;;;3.28;1.52;;;14.90;99.90;;;;;;5044237;28;20336;-74
2022/07/11 04:15:57;;;;;;;2.67;1.20;;;14.90;99.90;;;;;;5039897;28;20477;-74
2022/07/11 04:18:23;;;;;;;1.63;1.30;;;14.90;99.90;;;;;;5043954;28;20106;-74
2022/07/11 04:20:49;;;;;;;2.53;1.10;;;14.90;99.90;;;;;;5043466;28;20487;-74
2022/07/11 04:23:18;;;;;;;1.13;1.05;;;15.00;99.90;;;;;;5042568;28;20033;-74
2022/07/11 04:25:43;;;;;;;1.35;1.10;;;15.00;99.90;;;;;;5046274;28;20348;-74
2022/07/11 04:28:09;;;;;;;3.22;1.25;;;15.00;99.90;;;;;;5042218;28;20030;-74
2022/07/11 04:30:35;;;;;;;1.75;1.10;;;15.00;99.90;;;;;;5042002;28;20025;-73
2022/07/11 04:33:01;;;;;;;2.55;1.10;;;15.00;99.90;;;;;;5043603;28;20037;-74
2022/07/11 04:35:27;;;;;;;2.13;1.27;;;14.90;99.90;;;;;;5041778;28;20048;-74
2022/07/11 04:37:53;;;;;;;1.60;1.20;;;14.90;99.90;;;;;;5046422;28;20095;-74
2022/07/11 04:40:20;;;;;;;1.10;1.00;;;14.90;99.90;;;;;;5031179;28;20261;-74
2022/07/11 04:42:46;;;;;;;0.85;0.80;;;14.90;99.90;;;;;;5039926;28;20064;-74
2022/07/11 04:45:12;;;;;;;2.55;1.20;;;14.90;99.90;;;;;;5045369;28;20338;-74
2022/07/11 04:47:38;;;;;;;1.23;1.10;;;15.00;99.90;;;;;;5036419;28;20071;-74
2022/07/11 04:50:04;;;;;;;1.38;1.00;;;15.00;99.90;;;;;;5040209;28;20328;-74
2022/07/11 04:52:29;;;;;;;1.20;1.10;;;15.00;99.90;;;;;;5036670;28;20060;-74
2022/07/11 04:54:55;;;;;;;1.67;1.00;;;15.00;99.90;;;;;;5036049;28;20723;-73
2022/07/11 04:57:21;;;;;;;3.20;1.00;;;15.00;99.90;;;;;;5041174;28;20025;-74
2022/07/11 04:59:46;;;;;;;0.73;0.73;;;15.00;99.90;;;;;;5042094;28;20485;-74
2022/07/11 05:02:12;;;;;;;1.70;0.90;;;15.00;99.90;;;;;;5043480;28;20543;-74
2022/07/11 05:04:38;;;;;;;1.67;0.80;;;15.00;99.90;;;;;;5043778;28;20031;-74
2022/07/11 05:07:03;;;;;;;1.40;0.75;;;15.00;99.90;;;;;;5029750;28;20029;-73
2022/07/11 05:09:29;;;;;;;2.03;0.90;;;14.90;99.90;;;;;;5032939;28;20457;-74
2022/07/11 05:11:55;;;;;;;0.93;0.70;;;14.90;99.90;;;;;;5037796;28;20033;-73
2022/07/11 05:14:20;;;;;;;1.80;0.73;;;14.90;99.90;;;;;;5031890;28;20030;-74
2022/07/11 05:16:46;;;;;;;3.03;0.70;;;14.80;99.90;;;;;;5037993;28;20060;-74
2022/07/11 05:19:12;;;;;;;1.48;0.60;;;14.80;99.90;;;;;;5042056;28;20339;-75
2022/07/11 05:21:37;;;;;;;1.25;0.50;;;14.90;99.90;;;;;;5044418;28;20028;-74
2022/07/11 05:24:03;;;;;;;0.40;0.40;;;14.90;99.90;;;;;;5042998;28;20044;-74
2022/07/11 05:26:29;;;;;;;4.43;0.45;;;14.90;99.90;;;;;;5041207;28;20037;-74
2022/07/11 05:28:54;;;;;;;0.40;0.40;;;14.90;99.90;;;;;;5044688;28;20033;-75
2022/07/11 05:31:20;;;;;;;2.80;0.50;;;15.00;99.90;;;;;;5037635;28;20094;-74
2022/07/11 05:33:46;;;;;;;1.48;0.43;;;15.00;99.90;;;;;;5042825;28;20491;-74
2022/07/11 05:36:12;;;;;;;0.47;0.40;;;15.00;99.90;;;;;;5036923;28;20050;-74
2022/07/11 05:38:38;;;;;;;2.63;0.50;;;15.10;99.90;;;;;;5043551;28;20052;-74
2022/07/11 05:41:04;;;;;;;1.20;0.60;;;15.10;99.90;;;;;;5030278;28;20041;-74
2022/07/11 05:43:29;;;;;;;1.15;0.55;;;15.10;99.90;;;;;;5040064;28;20029;-74
2022/07/11 05:45:55;;;;;;;0.60;0.60;;;15.10;99.90;;;;;;5049759;28;20400;-74
2022/07/11 05:48:21;;;;;;;1.17;0.60;;;15.10;99.90;;;;;;5041961;28;20113;-73
2022/07/11 05:50:46;;;;;;;0.85;0.47;;;15.10;99.90;;;;;;5037504;28;20392;-73
2022/07/11 05:53:12;;;;;;;1.33;0.60;;;15.10;99.90;;;;;;5039385;28;20095;-73
2022/07/11 05:55:38;;;;;;;3.35;0.90;;;15.10;99.90;;;;;;5043639;28;20056;-74
2022/07/11 05:58:04;;;;;;;1.92;0.60;;;15.20;99.90;;;;;;5043296;28;20129;-74
2022/07/11 06:00:29;;;;;;;3.35;0.65;;;15.20;99.90;;;;;;5042643;28;20028;-73
2022/07/11 06:02:55;;;;;;;2.53;0.85;;;15.20;99.90;;;;;;5040265;28;20123;-73
2022/07/11 06:05:21;;;;;;;1.00;0.80;;;15.30;99.90;;;;;;5039160;28;20029;-74
2022/07/11 06:10:32;;;;;;;2.95;0.80;;;15.30;99.90;;;;;;5029591;28;20090;-73
2022/07/11 06:12:58;;;;;;;1.08;0.70;;;15.40;99.90;;;;;;5038959;28;20025;-74
2022/07/11 06:15:24;;;;;;;1.95;0.80;;;15.40;99.90;;;;;;5032061;28;20116;-74
2022/07/11 06:17:49;;;;;;;1.73;0.85;;;15.40;99.90;;;;;;5046017;28;20036;-74
2022/07/11 06:20:15;;;;;;;2.90;0.82;;;15.40;99.90;;;;;;5033906;28;20374;-74
2022/07/11 06:22:41;;;;;;;0.93;0.73;;;15.40;99.90;;;;;;5043979;28;20039;-73
2022/07/11 06:25:08;;;;;;;2.63;1.10;;;15.40;99.90;;;;;;5045003;28;20040;-74
2022/07/11 06:27:34;;;;;;;1.65;0.77;;;15.40;99.90;;;;;;5038342;28;20108;-74
2022/07/11 06:30:00;;;;;;;3.25;1.13;;;15.40;99.90;;;;;;5044482;28;20151;-74
2022/07/11 06:32:27;;;;;;;8.00;1.48;;;15.40;99.90;;;;;;5035542;28;20604;-74
2022/07/11 06:34:52;;;;;;;3.90;1.00;;;15.50;99.90;;;;;;5046049;28;20044;-74
2022/07/11 06:37:18;;;;;;;3.88;1.48;;;15.60;99.90;;;;;;5032304;28;20047;-74
2022/07/11 06:39:44;;;;;;;3.03;1.25;;;15.70;99.90;;;;;;5045676;28;20041;-75
2022/07/11 06:42:09;;;;;;;2.97;1.40;;;15.70;99.90;;;;;;5043349;28;20111;-75
2022/07/11 06:44:35;;;;;;;4.75;1.35;;;15.80;99.90;;;;;;5044578;28;20025;-75
2022/07/11 06:47:01;;;;;;;1.95;1.40;;;15.80;99.90;;;;;;5042562;28;20329;-75
2022/07/11 06:49:26;;;;;;;1.80;1.13;;;15.80;99.90;;;;;;5034877;28;20044;-75
2022/07/11 06:51:52;;;;;;;1.20;1.10;;;15.80;99.90;;;;;;5059730;28;20440;-75
2022/07/11 06:54:17;;;;;;;1.98;1.10;;;15.80;99.90;;;;;;5030088;28;20021;-75
2022/07/11 06:56:43;;;;;;;3.33;1.40;;;15.80;99.90;;;;;;5044468;28;20045;-75
2022/07/11 06:59:08;;;;;;;3.22;1.40;;;15.80;99.90;;;;;;5047060;28;20358;-75
2022/07/11 07:01:34;;;;;;;2.90;1.50;;;15.80;99.90;;;;;;5041700;28;20036;-75
2022/07/11 07:03:59;;;;;;;1.80;1.48;;;15.80;99.90;;;;;;5037068;28;20029;-75
2022/07/11 07:06:25;;;;;;;2.65;1.20;;;15.80;99.90;;;;;;5044186;28;20485;-75
2022/07/11 07:08:51;;;;;;;2.88;1.75;;;15.80;99.90;;;;;;5046323;28;20029;-75
2022/07/11 07:11:18;;;;;;;2.08;1.60;;;15.80;99.90;;;;;;5047579;28;20033;-74
2022/07/11 07:13:45;;;;;;;2.63;1.90;;;15.90;99.90;;;;;;5030343;28;20171;-75
2022/07/11 07:16:11;;;;;;;1.60;1.50;;;15.90;99.90;;;;;;5048949;28;20048;-75
2022/07/11 07:18:38;;;;;;;2.85;1.55;;;16.00;99.90;;;;;;5048748;28;20605;-74
2022/07/11 07:21:06;;;;;;;4.13;1.30;;;15.90;99.90;;;;;;5047489;28;20029;-75
2022/07/11 07:23:32;;;;;;;3.60;1.55;;;15.90;99.90;;;;;;5049680;28;20025;-75
2022/07/11 07:25:57;;;;;;;5.30;1.98;;;15.90;99.90;;;;;;5036486;28;20029;-75
2022/07/11 07:28:23;;;;;;;3.72;1.80;;;15.90;99.90;;;;;;5030543;28;20460;-75
2022/07/11 07:30:48;;;;;;;5.53;1.77;;;15.90;99.90;;;;;;5044075;28;20037;-75
2022/07/11 07:33:14;;;;;;;3.05;1.90;;;15.90;99.90;;;;;;5061643;28;20438;-75
2022/07/11 07:35:39;;;;;;;6.30;2.17;;;16.00;99.90;;;;;;5044040;28;20044;-75
2022/07/11 07:38:05;;;;;;;5.63;2.17;;;16.10;99.90;;;;;;5047114;28;20021;-75
2022/07/11 07:40:30;;;;;;;3.22;2.00;;;16.10;99.90;;;;;;5031549;28;20016;-75
2022/07/11 07:42:56;;;;;;;2.90;1.95;;;16.20;99.90;;;;;;5045664;28;20028;-75
2022/07/11 07:45:23;;;;;;;7.28;2.13;;;16.20;99.90;;;;;;5042503;28;20409;-74
2022/07/11 07:47:48;;;;;;;3.20;1.75;;;16.30;99.90;;;;;;5049426;28;20555;-74
2022/07/11 07:50:14;;;;;;;5.72;1.65;;;16.40;99.90;;;;;;5041097;28;20060;-73
2022/07/11 07:52:40;;;;;;;3.30;1.58;;;16.40;99.90;;;;;;5047890;28;20111;-74
2022/07/11 07:55:06;;;;;;;4.88;1.60;;;16.40;99.90;;;;;;5047573;28;20029;-74
2022/07/11 07:57:32;;;;;;;5.10;1.70;;;16.50;99.90;;;;;;5068583;28;20124;-75
2022/07/11 08:02:42;;;;;;;5.43;1.70;;;16.60;99.90;;;;;;5040449;28;20081;-74
2022/07/11 08:05:09;;;;;;;1.98;1.40;;;16.70;99.90;;;;;;5049007;28;20033;-74
2022/07/11 08:07:34;;;;;;;3.08;1.90;;;16.80;99.90;;;;;;5048688;28;20028;-74
2022/07/11 08:10:01;;;;;;;3.33;1.70;;;16.80;99.90;;;;;;5054292;28;20031;-75
2022/07/11 08:12:26;;;;;;;4.28;1.60;;;16.80;99.90;;;;;;5031698;28;20036;-74
2022/07/11 08:14:52;;;;;;;3.30;1.70;;;16.80;99.90;;;;;;5066679;28;20269;-74
2022/07/11 08:17:18;;;;;;;4.70;1.60;;;16.90;99.90;;;;;;5059164;28;20025;-75
2022/07/11 08:19:43;;;;;;;4.07;1.95;;;16.90;99.90;;;;;;5031809;28;20036;-74
2022/07/11 08:22:09;;;;;;;3.40;2.42;;;16.80;99.90;;;;;;5047058;28;20378;-74
2022/07/11 08:24:34;;;;;;;4.35;2.65;;;16.80;99.90;;;;;;5040733;28;20025;-73
2022/07/11 08:27:00;;;;;;;4.28;2.00;;;16.80;99.90;;;;;;5045592;28;20021;-73
2022/07/11 08:29:26;;;;;;;4.25;2.08;;;16.80;99.90;;;;;;5039923;28;20104;-73
2022/07/11 08:31:51;;;;;;;10.10;2.58;;;16.80;99.90;;;;;;5033249;28;20025;-74
2022/07/11 08:34:17;;;;;;;4.80;2.65;;;16.70;99.90;;;;;;5046090;28;20036;-74
2022/07/11 08:36:42;;;;;;;5.72;3.08;;;16.70;99.90;;;;;;5043499;28;20057;-74
2022/07/11 08:39:08;;;;;;;5.78;2.92;;;16.70;99.90;;;;;;5044773;28;20576;-75
2022/07/11 08:41:42;;;;;;;6.00;3.00;;;16.60;99.90;;;;;;5045761;28;20024;-74
2022/07/11 08:44:08;;;;;;;3.40;2.78;;;16.60;99.90;;;;;;5047178;28;20032;-74
2022/07/11 08:46:33;;;;;;;5.53;4.03;;;16.70;99.90;;;;;;5047683;28;20033;-74
2022/07/11 08:49:01;;;;;;;5.43;3.30;;;16.80;99.90;;;;;;5043962;28;20473;-74
2022/07/11 08:51:27;;;;;;;5.30;3.50;;;16.90;99.90;;;;;;5038657;28;20068;-75
2022/07/11 08:53:53;;;;;;;6.30;3.00;;;17.00;99.90;;;;;;5032490;28;20389;-74
2022/07/11 08:56:21;;;;;;;6.38;2.90;;;17.10;99.90;;;;;;5047154;28;20051;-72
2022/07/11 08:58:48;;;;;;;3.85;3.00;;;17.20;99.90;;;;;;5045436;28;20021;-73
2022/07/11 09:01:17;;;;;;;5.82;3.10;;;17.20;99.90;;;;;;5061175;28;20020;-74
2022/07/11 09:03:44;;;;;;;4.68;2.92;;;17.20;99.90;;;;;;5053179;28;20124;-74
2022/07/11 09:06:11;;;;;;;12.57;4.85;;;17.20;99.90;;;;;;5027212;28;20025;-75
2022/07/11 09:08:36;;;;;;;4.13;3.72;;;17.20;99.90;;;;;;5034676;28;20036;-74
2022/07/11 09:11:04;;;;;;;6.40;3.88;;;17.20;99.90;;;;;;5040348;28;20493;-74
2022/07/11 09:13:30;;;;;;;8.80;4.60;;;17.30;99.90;;;;;;5046623;28;20036;-74
2022/07/11 09:16:07;;;;;;;5.25;4.18;;;17.30;99.90;;;;;;5045669;28;20070;-74
2022/07/11 09:18:37;;;;;;;9.45;3.83;;;17.40;99.90;;;;;;5040843;28;20123;-73
2022/07/11 09:26:36;;;;;;;5.45;4.15;;;17.30;99.90;;;;;;5032604;28;20119;-74
2022/07/11 09:29:20;;;;;;;6.70;3.50;;;17.20;99.90;;;;;;5038954;28;20029;-73
2022/07/11 09:31:47;;;;;;;4.93;3.75;;;17.10;99.90;;;;;;5038068;28;20026;-74
2022/07/11 09:34:15;;;;;;;4.60;3.58;;;17.20;99.90;;;;;;5046765;28;20033;-74
2022/07/11 09:36:54;;;;;;;6.88;3.65;;;17.20;99.90;;;;;;5046581;28;20047;-73
2022/07/11 09:39:24;;;;;;;4.53;3.60;;;17.20;99.90;;;;;;5040848;28;20461;-74
2022/07/11 09:41:54;;;;;;;5.97;3.70;;;17.20;99.90;;;;;;5041050;28;20021;-74
2022/07/11 09:44:21;;;;;;;3.90;3.60;;;17.10;99.90;;;;;;5038468;28;20281;-74
2022/07/11 09:46:49;;;;;;;10.18;3.85;;;17.10;99.90;;;;;;5041793;28;20033;-74
2022/07/11 09:49:16;;;;;;;4.90;3.33;;;17.10;99.90;;;;;;5032073;28;20137;-74
2022/07/11 09:51:43;;;;;;;3.72;2.90;;;17.20;99.90;;;;;;5037019;28;20447;-74
2022/07/11 09:54:10;;;;;;;4.38;2.70;;;17.20;99.90;;;;;;5037325;28;20021;-74
2022/07/11 09:56:45;;;;;;;2.00;1.90;;;17.30;99.90;;;;;;5041436;28;20032;-74
2022/07/11 09:59:15;;;;;;;4.07;1.90;;;17.40;99.90;;;;;;5038428;28;20036;-74
2022/07/11 10:01:41;;;;;;;2.03;1.52;;;17.40;99.90;;;;;;5035285;28;20037;-74
2022/07/11 10:04:09;;;;;;;3.85;1.75;;;17.40;99.90;;;;;;5039191;28;20089;-74
2022/07/11 10:06:36;;;;;;;1.52;0.60;;;17.40;99.90;;;;;;5041595;28;20032;-74
2022/07/11 10:09:04;;;;;;;0.30;0.30;;;17.40;99.90;;;;;;5037286;28;20035;-74
2022/07/11 10:11:30;;;;;;;0.10;0.10;;;17.30;99.90;;;;;;5039815;28;20314;-74
2022/07/11 10:13:58;;;;;;;0.10;0.10;;;17.30;99.90;;;;;;5044245;28;20024;-74
2022/07/11 10:17:01;;;;;;;0.10;0.10;;;17.30;99.90;;;;;;5037325;28;20524;-74
2022/07/11 10:20:02;;;;;;;0.40;0.10;;;17.30;99.90;;;;;;5036563;28;20520;-74
2022/07/11 10:22:56;;;;;;;0.17;0.10;;;17.30;99.90;;;;;;4995735;28;20072;-74
2022/07/11 10:25:46;;;;;;;0.40;0.17;;;17.40;99.90;;;;;;5045756;28;20029;-74
2022/07/11 10:28:30;;;;;;;0.20;0.10;;;17.50;99.90;;;;;;5029398;28;20021;-74
2022/07/11 10:30:59;;;;;;;0.00;0.00;;;17.60;99.90;;;;;;5032536;28;20072;-74
2022/07/11 10:33:25;;;;;;;0.20;0.10;;;17.90;99.90;;;;;;5042630;28;20021;-74
2022/07/11 10:35:52;;;;;;;1.05;0.20;;;18.20;99.90;;;;;;5056586;28;20073;-74
2022/07/11 10:38:19;;;;;;;1.23;0.30;;;18.40;99.90;;;;;;5044435;28;20029;-73
2022/07/11 10:40:53;;;;;;;0.10;0.10;;;18.40;99.90;;;;;;5041575;28;20025;-75
2022/07/11 10:43:21;;;;;;;0.32;0.10;;;18.40;99.90;;;;;;5044130;28;20033;-74
2022/07/11 10:45:56;;;;;;;0.80;0.20;;;18.30;99.90;;;;;;5040479;28;20052;-74
2022/07/11 10:48:23;;;;;;;1.77;0.30;;;18.30;99.90;;;;;;5037656;28;20038;-74
2022/07/11 10:51:14;;;;;;;1.50;0.20;;;18.30;99.90;;;;;;5037950;28;20380;-74
2022/07/11 10:53:48;;;;;;;0.85;0.30;;;18.40;99.90;;;;;;5039692;28;20055;-73
2022/07/11 10:56:28;;;;;;;1.25;0.40;;;18.40;99.90;;;;;;5045447;28;20079;-74
2022/07/11 10:59:08;;;;;;;0.30;0.30;;;18.50;99.90;;;;;;5042071;28;20441;-74
2022/07/11 11:01:33;;;;;;;0.70;0.30;;;18.50;99.90;;;;;;5045840;28;20021;-74
2022/07/11 11:04:37;;;;;;;0.32;0.30;;;18.60;99.90;;;;;;5043989;28;20025;-74
2022/07/11 11:07:02;;;;;;;1.00;0.30;;;18.70;99.90;;;;;;5044880;28;20038;-74
2022/07/11 11:09:38;;;;;;;0.30;0.30;;;18.90;99.90;;;;;;5034835;28;20988;-74
2022/07/11 11:12:04;;;;;;;0.60;0.35;;;19.10;99.90;;;;;;5036872;28;20037;-73
2022/07/11 11:14:30;;;;;;;0.75;0.30;;;19.10;99.90;;;;;;5047832;28;20094;-74
2022/07/11 11:17:17;;;;;;;1.65;0.40;;;19.20;99.90;;;;;;5048277;28;20036;-74
2022/07/11 11:19:48;;;;;;;0.73;0.30;;;19.30;99.90;;;;;;5039547;28;20029;-74
2022/07/11 11:22:18;;;;;;;2.38;0.60;;;19.40;99.90;;;;;;5046415;28;20099;-74
2022/07/11 11:24:49;;;;;;;0.47;0.40;;;19.40;99.90;;;;;;5037818;28;20485;-74
2022/07/11 11:27:33;;;;;;;0.65;0.40;;;19.40;99.90;;;;;;5039240;28;20082;-74
2022/07/11 11:29:59;;;;;;;0.60;0.60;;;19.50;99.90;;;;;;5045364;28;20037;-74
2022/07/11 11:32:31;;;;;;;1.10;0.50;;;19.60;99.90;;;;;;5047109;28;20028;-74
2022/07/11 11:34:57;;;;;;;0.47;0.40;;;19.60;99.90;;;;;;5040937;28;20289;-75
2022/07/11 11:37:24;;;;;;;0.30;0.30;;;19.60;99.90;;;;;;5036514;28;20017;-74
2022/07/11 11:39:57;;;;;;;1.85;0.32;;;19.60;99.90;;;;;;5033249;28;20029;-74
2022/07/11 11:42:23;;;;;;;2.67;0.40;;;19.80;99.90;;;;;;5034294;28;20041;-74
2022/07/11 11:44:55;;;;;;;0.45;0.40;;;19.90;99.90;;;;;;5047016;28;20082;-74
2022/07/11 11:47:21;;;;;;;1.27;0.70;;;19.90;99.90;;;;;;5044863;28;20021;-74
2022/07/11 11:49:48;;;;;;;1.45;0.50;;;19.70;99.90;;;;;;5046067;28;20702;-73
2022/07/11 11:52:14;;;;;;;1.02;0.60;;;19.50;99.90;;;;;;5042240;28;20461;-74
2022/07/11 11:54:40;;;;;;;2.20;1.08;;;19.30;99.90;;;;;;5038288;28;20029;-73
2022/07/11 11:57:07;;;;;;;4.28;0.70;;;19.00;99.90;;;;;;5048783;28;20029;-73
2022/07/11 11:59:33;;;;;;;0.80;0.80;;;18.60;99.90;;;;;;5040016;28;20493;-73
2022/07/11 12:01:59;;;;;;;0.90;0.80;;;18.50;99.90;;;;;;5036661;28;20385;-73
2022/07/11 12:04:24;;;;;;;1.35;0.90;;;18.30;99.90;;;;;;5048696;28;20060;-73
2022/07/11 12:06:50;;;;;;;1.10;0.75;;;18.20;99.90;;;;;;5042796;28;20025;-73
2022/07/11 12:09:45;;;;;;;0.73;0.70;;;18.20;99.90;;;;;;5037484;28;20119;-73
2022/07/11 12:14:58;;;;;;;1.45;0.80;;;18.20;99.90;;;;;;5006728;28;20032;-74
2022/07/11 12:17:25;;;;;;;1.48;1.17;;;18.30;99.90;;;;;;5042090;28;20037;-74
2022/07/11 12:19:50;;;;;;;1.40;0.90;;;18.40;99.90;;;;;;5044127;28;20072;-74
2022/07/11 12:22:16;;;;;;;1.45;1.02;;;18.50;99.90;;;;;;5042725;28;20064;-74
2022/07/11 12:24:47;;;;;;;1.60;0.90;;;18.60;99.90;;;;;;5036331;28;20092;-74
2022/07/11 12:27:17;;;;;;;2.25;0.90;;;18.70;99.90;;;;;;5035264;28;20033;-74
2022/07/11 12:29:47;;;;;;;1.48;0.82;;;18.80;99.90;;;;;;5043761;28;20037;-74
2022/07/11 12:32:13;;;;;;;3.88;1.00;;;19.10;99.90;;;;;;5037725;28;20029;-74
2022/07/11 12:34:39;;;;;;;2.03;0.90;;;19.20;99.90;;;;;;5040765;28;20393;-74
2022/07/11 12:37:06;;;;;;;1.35;1.10;;;19.10;99.90;;;;;;5025639;28;20041;-74
2022/07/11 12:39:38;;;;;;;2.40;1.00;;;19.20;99.90;;;;;;5034280;28;20040;-74
2022/07/11 12:42:26;;;;;;;2.30;1.10;;;19.30;99.90;;;;;;5029516;28;20401;-74
2022/07/11 12:44:59;;;;;;;1.00;1.00;;;19.40;99.90;;;;;;5054548;28;20032;-74
2022/07/11 12:47:28;;;;;;;0.80;0.80;;;19.40;99.90;;;;;;5044244;28;20033;-74
2022/07/11 12:49:55;;;;;;;1.70;0.60;;;19.50;99.90;;;;;;5036077;28;20323;-74
2022/07/11 12:52:21;;;;;;;1.83;0.85;;;19.50;99.90;;;;;;5035964;28;20303;-74
2022/07/11 12:54:47;;;;;;;1.20;1.00;;;19.70;99.90;;;;;;5028789;28;20504;-74
2022/07/11 12:57:20;;;;;;;4.05;0.90;;;19.80;99.90;;;;;;5041454;28;20047;-74
2022/07/11 12:59:46;;;;;;;1.10;0.90;;;19.90;99.90;;;;;;5034805;28;20029;-74
2022/07/11 13:02:13;;;;;;;2.10;0.82;;;19.90;99.90;;;;;;5028630;28;20040;-74